sensor_id;sensor_type;location;lat;lon;timestamp;pressure;altitude;pressure_sealevel;temperature;humidity
36192;BME280;22233;42.708;23.360;2023-07-22T00:00:26;95349.38;;;28.06;47.71
36192;BME280;22233;42.708;23.360;2023-07-22T00:02:51;95346.50;;;28.09;47.62
36192;BME280;22233;42.708;23.360;2023-07-22T00:05:17;95355.78;;;28.23;47.62
36192;BME280;22233;42.708;23.360;2023-07-22T00:07:49;95365.47;;;28.18;47.80
36192;BME280;22233;42.708;23.360;2023-07-22T00:10:15;95357.50;;;27.97;48.31
36192;BME280;22233;42.708;23.360;2023-07-22T00:12:41;95371.56;;;28.13;48.38
36192;BME280;22233;42.708;23.360;2023-07-22T00:15:07;95361.38;;;28.03;48.08
36192;BME280;22233;42.708;23.360;2023-07-22T00:17:32;95360.28;;;27.97;48.81
36192;BME280;22233;42.708;23.360;2023-07-22T00:19:58;95359.50;;;27.96;49.08
36192;BME280;22233;42.708;23.360;2023-07-22T00:22:23;95348.84;;;27.67;50.06
36192;BME280;22233;42.708;23.360;2023-07-22T00:24:51;95361.59;;;27.68;49.82
36192;BME280;22233;42.708;23.360;2023-07-22T00:27:17;95353.78;;;27.60;49.85
36192;BME280;22233;42.708;23.360;2023-07-22T00:29:42;95366.16;;;27.59;49.89
36192;BME280;22233;42.708;23.360;2023-07-22T00:32:08;95354.88;;;27.89;49.66
36192;BME280;22233;42.708;23.360;2023-07-22T00:34:34;95358.06;;;27.64;50.44
36192;BME280;22233;42.708;23.360;2023-07-22T00:37:00;95359.72;;;27.38;51.06
36192;BME280;22233;42.708;23.360;2023-07-22T00:39:25;95355.84;;;27.32;51.10
36192;BME280;22233;42.708;23.360;2023-07-22T00:41:50;95354.88;;;27.42;51.00
36192;BME280;22233;42.708;23.360;2023-07-22T00:44:16;95369.91;;;27.48;51.24
36192;BME280;22233;42.708;23.360;2023-07-22T00:46:41;95368.78;;;27.19;51.84
36192;BME280;22233;42.708;23.360;2023-07-22T00:49:07;95359.06;;;27.03;52.46
36192;BME280;22233;42.708;23.360;2023-07-22T00:51:33;95377.72;;;27.34;51.50
36192;BME280;22233;42.708;23.360;2023-07-22T00:53:59;95375.56;;;27.18;51.73
36192;BME280;22233;42.708;23.360;2023-07-22T00:56:25;95373.13;;;27.20;52.07
36192;BME280;22233;42.708;23.360;2023-07-22T00:58:51;95377.16;;;27.19;52.22
36192;BME280;22233;42.708;23.360;2023-07-22T01:01:17;95358.97;;;27.10;52.38
36192;BME280;22233;42.708;23.360;2023-07-22T01:03:42;95365.00;;;27.05;52.72
36192;BME280;22233;42.708;23.360;2023-07-22T01:06:09;95361.53;;;26.98;52.97
36192;BME280;22233;42.708;23.360;2023-07-22T01:08:35;95352.38;;;26.97;52.59
36192;BME280;22233;42.708;23.360;2023-07-22T01:11:00;95350.13;;;26.88;53.20
36192;BME280;22233;42.708;23.360;2023-07-22T01:13:26;95341.09;;;26.81;53.22
36192;BME280;22233;42.708;23.360;2023-07-22T01:15:52;95346.13;;;26.89;53.18
36192;BME280;22233;42.708;23.360;2023-07-22T01:18:18;95348.59;;;26.53;54.46
36192;BME280;22233;42.708;23.360;2023-07-22T01:20:43;95348.97;;;26.55;54.42
36192;BME280;22233;42.708;23.360;2023-07-22T01:23:10;95346.78;;;26.39;54.58
36192;BME280;22233;42.708;23.360;2023-07-22T01:25:36;95353.06;;;26.47;54.93
36192;BME280;22233;42.708;23.360;2023-07-22T01:28:02;95347.50;;;26.47;54.72
36192;BME280;22233;42.708;23.360;2023-07-22T01:30:27;95339.66;;;26.38;55.15
36192;BME280;22233;42.708;23.360;2023-07-22T01:32:53;95342.16;;;26.29;55.33
36192;BME280;22233;42.708;23.360;2023-07-22T01:35:18;95334.94;;;26.01;55.87
36192;BME280;22233;42.708;23.360;2023-07-22T01:37:44;95334.75;;;26.46;54.92
36192;BME280;22233;42.708;23.360;2023-07-22T01:40:10;95335.09;;;26.51;54.54
36192;BME280;22233;42.708;23.360;2023-07-22T01:42:43;95341.72;;;26.30;55.50
36192;BME280;22233;42.708;23.360;2023-07-22T01:45:09;95331.41;;;26.27;55.31
36192;BME280;22233;42.708;23.360;2023-07-22T01:47:38;95354.13;;;26.57;54.46
36192;BME280;22233;42.708;23.360;2023-07-22T01:50:05;95343.81;;;26.54;54.66
36192;BME280;22233;42.708;23.360;2023-07-22T01:52:32;95331.47;;;26.55;54.50
36192;BME280;22233;42.708;23.360;2023-07-22T01:54:57;95334.13;;;26.65;54.94
36192;BME280;22233;42.708;23.360;2023-07-22T01:57:23;95330.44;;;26.72;54.26
36192;BME280;22233;42.708;23.360;2023-07-22T01:59:48;95315.91;;;26.57;54.57
36192;BME280;22233;42.708;23.360;2023-07-22T02:02:14;95324.84;;;26.45;54.76
36192;BME280;22233;42.708;23.360;2023-07-22T02:04:39;95311.97;;;26.58;54.68
36192;BME280;22233;42.708;23.360;2023-07-22T02:07:04;95325.25;;;26.74;54.78
36192;BME280;22233;42.708;23.360;2023-07-22T02:09:31;95329.41;;;26.62;54.77
36192;BME280;22233;42.708;23.360;2023-07-22T02:11:58;95328.75;;;26.20;56.05
36192;BME280;22233;42.708;23.360;2023-07-22T02:14:23;95332.22;;;25.94;56.71
36192;BME280;22233;42.708;23.360;2023-07-22T02:16:49;95325.66;;;26.11;56.03
36192;BME280;22233;42.708;23.360;2023-07-22T02:19:14;95320.81;;;26.19;56.12
36192;BME280;22233;42.708;23.360;2023-07-22T02:21:40;95337.28;;;26.37;55.72
36192;BME280;22233;42.708;23.360;2023-07-22T02:24:06;95337.50;;;26.49;55.50
36192;BME280;22233;42.708;23.360;2023-07-22T02:26:32;95342.69;;;26.47;55.30
36192;BME280;22233;42.708;23.360;2023-07-22T02:28:57;95341.38;;;26.28;56.11
36192;BME280;22233;42.708;23.360;2023-07-22T02:31:23;95347.63;;;26.36;55.82
36192;BME280;22233;42.708;23.360;2023-07-22T02:33:48;95339.22;;;26.40;55.61
36192;BME280;22233;42.708;23.360;2023-07-22T02:36:14;95346.75;;;26.12;56.57
36192;BME280;22233;42.708;23.360;2023-07-22T02:38:39;95344.19;;;26.25;56.20
36192;BME280;22233;42.708;23.360;2023-07-22T02:41:05;95346.75;;;26.12;56.55
36192;BME280;22233;42.708;23.360;2023-07-22T02:43:33;95352.91;;;25.93;57.58
36192;BME280;22233;42.708;23.360;2023-07-22T02:46:03;95338.41;;;25.70;57.99
36192;BME280;22233;42.708;23.360;2023-07-22T02:48:29;95351.63;;;26.01;57.15
36192;BME280;22233;42.708;23.360;2023-07-22T02:53:30;95348.69;;;26.15;56.85
36192;BME280;22233;42.708;23.360;2023-07-22T02:55:55;95337.72;;;26.01;56.99
36192;BME280;22233;42.708;23.360;2023-07-22T02:58:21;95363.75;;;26.18;57.08
36192;BME280;22233;42.708;23.360;2023-07-22T03:00:46;95341.00;;;25.88;57.84
36192;BME280;22233;42.708;23.360;2023-07-22T03:03:12;95355.66;;;25.96;57.67
36192;BME280;22233;42.708;23.360;2023-07-22T03:05:37;95360.69;;;26.08;57.41
36192;BME280;22233;42.708;23.360;2023-07-22T03:08:03;95347.75;;;25.91;57.96
36192;BME280;22233;42.708;23.360;2023-07-22T03:10:28;95348.91;;;25.94;57.66
36192;BME280;22233;42.708;23.360;2023-07-22T03:12:55;95358.00;;;25.98;57.61
36192;BME280;22233;42.708;23.360;2023-07-22T03:15:22;95348.41;;;26.06;57.66
36192;BME280;22233;42.708;23.360;2023-07-22T03:17:47;95347.59;;;26.05;57.44
36192;BME280;22233;42.708;23.360;2023-07-22T03:20:13;95358.28;;;26.10;57.16
36192;BME280;22233;42.708;23.360;2023-07-22T03:22:44;95352.75;;;25.65;58.31
36192;BME280;22233;42.708;23.360;2023-07-22T03:25:10;95349.75;;;25.90;57.88
36192;BME280;22233;42.708;23.360;2023-07-22T03:27:36;95339.94;;;25.75;58.07
36192;BME280;22233;42.708;23.360;2023-07-22T03:30:05;95371.63;;;25.88;58.15
36192;BME280;22233;42.708;23.360;2023-07-22T03:32:40;95362.16;;;25.79;58.27
36192;BME280;22233;42.708;23.360;2023-07-22T03:35:06;95379.16;;;25.91;58.22
36192;BME280;22233;42.708;23.360;2023-07-22T03:37:33;95378.81;;;25.86;58.49
36192;BME280;22233;42.708;23.360;2023-07-22T03:40:01;95368.75;;;25.58;58.55
36192;BME280;22233;42.708;23.360;2023-07-22T03:42:27;95375.88;;;25.06;59.70
36192;BME280;22233;42.708;23.360;2023-07-22T03:44:52;95380.97;;;25.15;59.49
36192;BME280;22233;42.708;23.360;2023-07-22T03:47:19;95378.28;;;25.04;59.83
36192;BME280;22233;42.708;23.360;2023-07-22T03:49:44;95390.09;;;25.23;59.61
36192;BME280;22233;42.708;23.360;2023-07-22T03:52:10;95378.34;;;24.97;60.31
36192;BME280;22233;42.708;23.360;2023-07-22T03:54:39;95389.91;;;25.44;59.44
36192;BME280;22233;42.708;23.360;2023-07-22T03:57:05;95395.06;;;25.46;59.51
36192;BME280;22233;42.708;23.360;2023-07-22T03:59:31;95399.78;;;25.52;59.32
36192;BME280;22233;42.708;23.360;2023-07-22T04:01:57;95394.47;;;25.17;60.25
36192;BME280;22233;42.708;23.360;2023-07-22T04:04:22;95398.75;;;25.32;60.07
36192;BME280;22233;42.708;23.360;2023-07-22T04:06:47;95406.59;;;25.44;59.86
36192;BME280;22233;42.708;23.360;2023-07-22T04:09:13;95403.00;;;25.47;59.77
36192;BME280;22233;42.708;23.360;2023-07-22T04:11:38;95410.09;;;25.56;59.20
36192;BME280;22233;42.708;23.360;2023-07-22T04:14:04;95397.84;;;25.46;58.83
36192;BME280;22233;42.708;23.360;2023-07-22T04:16:29;95402.69;;;25.38;58.96
36192;BME280;22233;42.708;23.360;2023-07-22T04:18:54;95406.88;;;25.57;58.20
36192;BME280;22233;42.708;23.360;2023-07-22T04:21:20;95396.19;;;25.56;57.97
36192;BME280;22233;42.708;23.360;2023-07-22T04:23:46;95403.41;;;25.46;58.86
36192;BME280;22233;42.708;23.360;2023-07-22T04:26:11;95412.34;;;25.16;60.60
36192;BME280;22233;42.708;23.360;2023-07-22T04:28:36;95404.94;;;25.54;59.55
36192;BME280;22233;42.708;23.360;2023-07-22T04:31:03;95405.19;;;25.67;59.01
36192;BME280;22233;42.708;23.360;2023-07-22T04:33:29;95421.38;;;25.79;58.95
36192;BME280;22233;42.708;23.360;2023-07-22T04:35:57;95419.09;;;25.70;59.31
36192;BME280;22233;42.708;23.360;2023-07-22T04:38:23;95406.81;;;25.64;59.20
36192;BME280;22233;42.708;23.360;2023-07-22T04:40:48;95421.34;;;25.83;59.25
36192;BME280;22233;42.708;23.360;2023-07-22T04:43:14;95430.09;;;25.81;59.10
36192;BME280;22233;42.708;23.360;2023-07-22T04:45:39;95421.16;;;26.08;58.38
36192;BME280;22233;42.708;23.360;2023-07-22T04:48:06;95413.94;;;26.10;58.38
36192;BME280;22233;42.708;23.360;2023-07-22T04:50:32;95425.28;;;26.30;58.26
36192;BME280;22233;42.708;23.360;2023-07-22T04:52:58;95414.94;;;26.27;57.99
36192;BME280;22233;42.708;23.360;2023-07-22T04:55:23;95397.16;;;26.18;58.36
36192;BME280;22233;42.708;23.360;2023-07-22T04:57:48;95429.06;;;26.44;57.63
36192;BME280;22233;42.708;23.360;2023-07-22T05:00:16;95427.38;;;26.54;57.56
36192;BME280;22233;42.708;23.360;2023-07-22T05:02:44;95425.78;;;26.56;58.14
36192;BME280;22233;42.708;23.360;2023-07-22T05:05:11;95426.34;;;26.40;58.10
36192;BME280;22233;42.708;23.360;2023-07-22T05:07:36;95444.28;;;26.36;57.69
36192;BME280;22233;42.708;23.360;2023-07-22T05:10:02;95438.09;;;26.59;56.99
36192;BME280;22233;42.708;23.360;2023-07-22T05:12:27;95430.56;;;26.18;58.73
36192;BME280;22233;42.708;23.360;2023-07-22T05:14:53;95431.41;;;26.49;57.41
36192;BME280;22233;42.708;23.360;2023-07-22T05:17:18;95426.59;;;26.53;57.26
36192;BME280;22233;42.708;23.360;2023-07-22T05:19:44;95435.66;;;26.64;58.13
36192;BME280;22233;42.708;23.360;2023-07-22T05:22:09;95439.53;;;26.70;57.31
36192;BME280;22233;42.708;23.360;2023-07-22T05:24:35;95436.81;;;26.94;56.14
36192;BME280;22233;42.708;23.360;2023-07-22T05:27:00;95434.00;;;26.98;56.04
36192;BME280;22233;42.708;23.360;2023-07-22T05:29:25;95426.56;;;26.87;56.25
36192;BME280;22233;42.708;23.360;2023-07-22T05:31:51;95427.25;;;26.95;56.27
36192;BME280;22233;42.708;23.360;2023-07-22T05:34:16;95439.34;;;27.12;55.65
36192;BME280;22233;42.708;23.360;2023-07-22T05:36:42;95435.88;;;27.04;56.39
36192;BME280;22233;42.708;23.360;2023-07-22T05:39:07;95440.47;;;27.18;56.36
36192;BME280;22233;42.708;23.360;2023-07-22T05:41:33;95447.59;;;27.23;56.02
36192;BME280;22233;42.708;23.360;2023-07-22T05:43:59;95454.56;;;26.80;57.37
36192;BME280;22233;42.708;23.360;2023-07-22T05:46:24;95441.94;;;26.99;57.04
36192;BME280;22233;42.708;23.360;2023-07-22T05:48:50;95444.19;;;27.08;56.67
36192;BME280;22233;42.708;23.360;2023-07-22T05:51:15;95437.88;;;27.04;56.60
36192;BME280;22233;42.708;23.360;2023-07-22T05:53:40;95444.53;;;27.14;56.49
36192;BME280;22233;42.708;23.360;2023-07-22T05:56:06;95434.78;;;26.98;56.85
36192;BME280;22233;42.708;23.360;2023-07-22T05:58:31;95436.75;;;27.28;55.92
36192;BME280;22233;42.708;23.360;2023-07-22T06:00:57;95441.03;;;27.37;55.55
36192;BME280;22233;42.708;23.360;2023-07-22T06:03:22;95438.63;;;27.39;55.22
36192;BME280;22233;42.708;23.360;2023-07-22T06:05:48;95459.22;;;26.87;56.65
36192;BME280;22233;42.708;23.360;2023-07-22T06:08:13;95456.28;;;27.28;56.19
36192;BME280;22233;42.708;23.360;2023-07-22T06:10:40;95465.47;;;27.53;56.49
36192;BME280;22233;42.708;23.360;2023-07-22T06:13:06;95465.44;;;27.56;55.85
36192;BME280;22233;42.708;23.360;2023-07-22T06:15:32;95467.00;;;27.57;55.18
36192;BME280;22233;42.708;23.360;2023-07-22T06:17:58;95455.28;;;27.42;55.02
36192;BME280;22233;42.708;23.360;2023-07-22T06:20:24;95478.72;;;27.72;55.33
36192;BME280;22233;42.708;23.360;2023-07-22T06:22:49;95464.22;;;27.81;54.71
36192;BME280;22233;42.708;23.360;2023-07-22T06:25:15;95457.63;;;27.95;54.70
36192;BME280;22233;42.708;23.360;2023-07-22T06:27:40;95474.84;;;27.66;56.00
36192;BME280;22233;42.708;23.360;2023-07-22T06:30:06;95482.25;;;27.76;56.13
36192;BME280;22233;42.708;23.360;2023-07-22T06:32:34;95487.50;;;27.70;56.78
36192;BME280;22233;42.708;23.360;2023-07-22T06:34:59;95467.25;;;27.43;56.73
36192;BME280;22233;42.708;23.360;2023-07-22T06:37:25;95483.56;;;27.68;56.72
36192;BME280;22233;42.708;23.360;2023-07-22T06:39:51;95492.72;;;27.96;56.65
36192;BME280;22233;42.708;23.360;2023-07-22T06:42:16;95487.88;;;28.00;55.39
36192;BME280;22233;42.708;23.360;2023-07-22T06:44:43;95500.53;;;28.28;55.80
36192;BME280;22233;42.708;23.360;2023-07-22T06:47:08;95496.97;;;28.27;55.44
36192;BME280;22233;42.708;23.360;2023-07-22T06:49:34;95485.13;;;28.20;55.33
36192;BME280;22233;42.708;23.360;2023-07-22T06:51:59;95482.69;;;28.22;54.78
36192;BME280;22233;42.708;23.360;2023-07-22T06:54:26;95482.91;;;28.31;54.15
36192;BME280;22233;42.708;23.360;2023-07-22T06:56:51;95474.53;;;28.31;54.80
36192;BME280;22233;42.708;23.360;2023-07-22T06:59:17;95471.97;;;28.64;53.46
36192;BME280;22233;42.708;23.360;2023-07-22T07:01:42;95468.09;;;28.78;52.89
36192;BME280;22233;42.708;23.360;2023-07-22T07:04:08;95476.47;;;28.58;52.88
36192;BME280;22233;42.708;23.360;2023-07-22T07:06:33;95476.91;;;28.76;51.82
36192;BME280;22233;42.708;23.360;2023-07-22T07:08:59;95476.31;;;28.85;52.04
36192;BME280;22233;42.708;23.360;2023-07-22T07:11:26;95464.22;;;28.72;52.54
36192;BME280;22233;42.708;23.360;2023-07-22T07:13:51;95461.06;;;28.90;52.29
36192;BME280;22233;42.708;23.360;2023-07-22T07:16:29;95469.91;;;29.24;51.77
36192;BME280;22233;42.708;23.360;2023-07-22T07:18:57;95454.97;;;29.31;51.53
36192;BME280;22233;42.708;23.360;2023-07-22T07:21:23;95453.22;;;29.37;50.89
36192;BME280;22233;42.708;23.360;2023-07-22T07:23:49;95459.59;;;29.38;51.24
36192;BME280;22233;42.708;23.360;2023-07-22T07:26:15;95468.97;;;29.31;50.55
36192;BME280;22233;42.708;23.360;2023-07-22T07:28:41;95447.28;;;29.52;49.87
36192;BME280;22233;42.708;23.360;2023-07-22T07:31:06;95450.09;;;29.52;49.77
36192;BME280;22233;42.708;23.360;2023-07-22T07:33:33;95449.53;;;29.77;48.99
36192;BME280;22233;42.708;23.360;2023-07-22T07:35:58;95462.97;;;29.65;49.32
36192;BME280;22233;42.708;23.360;2023-07-22T07:38:24;95455.78;;;29.64;49.42
36192;BME280;22233;42.708;23.360;2023-07-22T07:40:55;95451.53;;;29.93;49.98
36192;BME280;22233;42.708;23.360;2023-07-22T07:43:20;95452.56;;;29.99;49.84
36192;BME280;22233;42.708;23.360;2023-07-22T07:45:46;95440.66;;;30.11;49.73
36192;BME280;22233;42.708;23.360;2023-07-22T07:48:11;95444.88;;;29.86;48.96
36192;BME280;22233;42.708;23.360;2023-07-22T07:50:37;95438.94;;;29.84;48.39
36192;BME280;22233;42.708;23.360;2023-07-22T07:53:02;95447.34;;;29.84;48.82
36192;BME280;22233;42.708;23.360;2023-07-22T07:55:27;95437.84;;;29.45;49.95
36192;BME280;22233;42.708;23.360;2023-07-22T07:57:53;95428.81;;;29.74;49.55
36192;BME280;22233;42.708;23.360;2023-07-22T08:00:18;95442.28;;;30.25;48.35
36192;BME280;22233;42.708;23.360;2023-07-22T08:02:45;95449.56;;;30.22;48.13
36192;BME280;22233;42.708;23.360;2023-07-22T08:05:11;95450.25;;;30.10;48.13
36192;BME280;22233;42.708;23.360;2023-07-22T08:07:37;95434.34;;;30.07;48.10
36192;BME280;22233;42.708;23.360;2023-07-22T08:10:04;95426.91;;;30.17;48.24
36192;BME280;22233;42.708;23.360;2023-07-22T08:12:30;95434.19;;;29.81;49.07
36192;BME280;22233;42.708;23.360;2023-07-22T08:14:55;95434.00;;;30.05;48.57
36192;BME280;22233;42.708;23.360;2023-07-22T08:17:21;95437.72;;;30.60;47.63
36192;BME280;22233;42.708;23.360;2023-07-22T08:19:47;95435.41;;;30.72;47.28
36192;BME280;22233;42.708;23.360;2023-07-22T08:22:12;95444.44;;;30.92;46.80
36192;BME280;22233;42.708;23.360;2023-07-22T08:24:37;95424.19;;;30.59;46.98
36192;BME280;22233;42.708;23.360;2023-07-22T08:27:03;95428.53;;;30.89;46.84
36192;BME280;22233;42.708;23.360;2023-07-22T08:29:28;95440.59;;;30.86;47.67
36192;BME280;22233;42.708;23.360;2023-07-22T08:31:54;95436.75;;;31.09;45.93
36192;BME280;22233;42.708;23.360;2023-07-22T08:34:19;95427.19;;;31.06;46.12
36192;BME280;22233;42.708;23.360;2023-07-22T08:36:45;95419.72;;;31.29;46.37
36192;BME280;22233;42.708;23.360;2023-07-22T08:39:10;95420.84;;;31.44;45.59
36192;BME280;22233;42.708;23.360;2023-07-22T08:41:36;95407.00;;;31.37;45.34
36192;BME280;22233;42.708;23.360;2023-07-22T08:44:04;95415.88;;;31.36;45.93
36192;BME280;22233;42.708;23.360;2023-07-22T08:46:31;95406.34;;;31.46;45.36
36192;BME280;22233;42.708;23.360;2023-07-22T08:48:59;95394.94;;;31.75;45.03
36192;BME280;22233;42.708;23.360;2023-07-22T08:51:26;95387.06;;;31.96;44.74
36192;BME280;22233;42.708;23.360;2023-07-22T08:53:55;95399.13;;;32.18;44.01
36192;BME280;22233;42.708;23.360;2023-07-22T08:56:24;95388.09;;;32.24;43.02
36192;BME280;22233;42.708;23.360;2023-07-22T08:58:51;95390.97;;;32.33;43.34
36192;BME280;22233;42.708;23.360;2023-07-22T09:01:17;95387.38;;;32.33;43.18
36192;BME280;22233;42.708;23.360;2023-07-22T09:03:43;95380.09;;;32.00;43.43
36192;BME280;22233;42.708;23.360;2023-07-22T09:06:10;95381.34;;;32.21;43.75
36192;BME280;22233;42.708;23.360;2023-07-22T09:08:36;95376.94;;;31.98;44.06
36192;BME280;22233;42.708;23.360;2023-07-22T09:11:02;95356.03;;;32.34;43.47
36192;BME280;22233;42.708;23.360;2023-07-22T09:13:27;95387.91;;;32.84;42.98
36192;BME280;22233;42.708;23.360;2023-07-22T09:15:56;95372.53;;;32.98;42.25
36192;BME280;22233;42.708;23.360;2023-07-22T09:18:22;95369.81;;;33.17;42.32
36192;BME280;22233;42.708;23.360;2023-07-22T09:20:47;95378.38;;;33.54;41.17
36192;BME280;22233;42.708;23.360;2023-07-22T09:23:13;95374.53;;;33.70;40.93
36192;BME280;22233;42.708;23.360;2023-07-22T09:25:40;95369.06;;;33.75;41.58
36192;BME280;22233;42.708;23.360;2023-07-22T09:28:05;95360.38;;;33.51;40.59
36192;BME280;22233;42.708;23.360;2023-07-22T09:30:35;95366.72;;;33.83;40.18
36192;BME280;22233;42.708;23.360;2023-07-22T09:33:02;95373.16;;;33.93;40.05
36192;BME280;22233;42.708;23.360;2023-07-22T09:35:30;95370.66;;;34.13;39.97
36192;BME280;22233;42.708;23.360;2023-07-22T09:37:56;95364.22;;;34.13;39.33
36192;BME280;22233;42.708;23.360;2023-07-22T09:40:28;95370.53;;;34.26;38.84
36192;BME280;22233;42.708;23.360;2023-07-22T09:42:55;95359.72;;;34.15;38.94
36192;BME280;22233;42.708;23.360;2023-07-22T09:45:25;95346.69;;;34.09;39.04
36192;BME280;22233;42.708;23.360;2023-07-22T09:47:52;95339.22;;;34.24;39.18
36192;BME280;22233;42.708;23.360;2023-07-22T09:50:22;95348.13;;;34.22;39.47
36192;BME280;22233;42.708;23.360;2023-07-22T09:52:49;95339.19;;;34.52;38.88
36192;BME280;22233;42.708;23.360;2023-07-22T09:55:16;95348.41;;;34.71;38.75
36192;BME280;22233;42.708;23.360;2023-07-22T09:57:45;95347.06;;;34.99;38.44
36192;BME280;22233;42.708;23.360;2023-07-22T10:00:16;95331.34;;;35.17;37.36
36192;BME280;22233;42.708;23.360;2023-07-22T10:02:42;95333.53;;;35.13;37.59
36192;BME280;22233;42.708;23.360;2023-07-22T10:05:12;95349.84;;;35.18;37.71
36192;BME280;22233;42.708;23.360;2023-07-22T10:07:42;95334.56;;;35.34;37.37
36192;BME280;22233;42.708;23.360;2023-07-22T10:10:09;95320.91;;;35.32;36.68
36192;BME280;22233;42.708;23.360;2023-07-22T10:12:35;95337.69;;;35.36;36.70
36192;BME280;22233;42.708;23.360;2023-07-22T10:15:02;95324.41;;;35.51;36.60
36192;BME280;22233;42.708;23.360;2023-07-22T10:17:28;95327.69;;;35.83;36.90
36192;BME280;22233;42.708;23.360;2023-07-22T10:19:55;95323.94;;;36.01;36.90
36192;BME280;22233;42.708;23.360;2023-07-22T10:22:21;95335.94;;;36.35;36.49
36192;BME280;22233;42.708;23.360;2023-07-22T10:24:47;95317.09;;;36.32;35.87
36192;BME280;22233;42.708;23.360;2023-07-22T10:27:14;95316.03;;;36.29;36.43
36192;BME280;22233;42.708;23.360;2023-07-22T10:29:40;95320.06;;;36.52;35.21
36192;BME280;22233;42.708;23.360;2023-07-22T10:32:07;95329.34;;;36.68;34.37
36192;BME280;22233;42.708;23.360;2023-07-22T10:34:32;95314.75;;;36.60;33.65
36192;BME280;22233;42.708;23.360;2023-07-22T10:36:57;95308.81;;;36.43;34.28
36192;BME280;22233;42.708;23.360;2023-07-22T10:39:27;95309.13;;;36.45;34.80
36192;BME280;22233;42.708;23.360;2023-07-22T10:42:00;95320.94;;;36.73;34.70
36192;BME280;22233;42.708;23.360;2023-07-22T10:44:26;95308.97;;;36.78;31.63
36192;BME280;22233;42.708;23.360;2023-07-22T10:46:58;95309.31;;;36.03;31.61
36192;BME280;22233;42.708;23.360;2023-07-22T10:49:24;95305.78;;;36.17;31.16
36192;BME280;22233;42.708;23.360;2023-07-22T10:51:53;95286.28;;;36.34;32.15
36192;BME280;22233;42.708;23.360;2023-07-22T10:54:32;95301.59;;;36.27;31.64
36192;BME280;22233;42.708;23.360;2023-07-22T10:57:23;95313.88;;;36.54;32.15
36192;BME280;22233;42.708;23.360;2023-07-22T10:59:50;95310.72;;;36.22;30.95
36192;BME280;22233;42.708;23.360;2023-07-22T11:02:27;95302.47;;;36.33;30.93
36192;BME280;22233;42.708;23.360;2023-07-22T11:04:52;95306.47;;;36.42;31.04
36192;BME280;22233;42.708;23.360;2023-07-22T11:07:32;95306.19;;;36.39;30.60
36192;BME280;22233;42.708;23.360;2023-07-22T11:09:58;95288.13;;;36.22;30.86
36192;BME280;22233;42.708;23.360;2023-07-22T11:12:38;95291.56;;;36.26;31.09
36192;BME280;22233;42.708;23.360;2023-07-22T11:15:04;95288.72;;;36.56;31.28
36192;BME280;22233;42.708;23.360;2023-07-22T11:17:32;95289.16;;;36.78;30.44
36192;BME280;22233;42.708;23.360;2023-07-22T11:19:59;95280.44;;;36.82;29.77
36192;BME280;22233;42.708;23.360;2023-07-22T11:22:24;95281.69;;;36.96;30.04
36192;BME280;22233;42.708;23.360;2023-07-22T11:24:52;95295.97;;;37.37;29.70
36192;BME280;22233;42.708;23.360;2023-07-22T11:27:17;95280.13;;;37.45;29.36
36192;BME280;22233;42.708;23.360;2023-07-22T11:29:44;95293.88;;;37.02;30.12
36192;BME280;22233;42.708;23.360;2023-07-22T11:32:17;95285.22;;;36.76;30.28
36192;BME280;22233;42.708;23.360;2023-07-22T11:34:42;95270.78;;;36.44;30.53
36192;BME280;22233;42.708;23.360;2023-07-22T11:37:11;95282.41;;;36.76;30.29
36192;BME280;22233;42.708;23.360;2023-07-22T11:39:36;95276.34;;;36.83;30.64
36192;BME280;22233;42.708;23.360;2023-07-22T11:42:03;95269.78;;;37.07;30.43
36192;BME280;22233;42.708;23.360;2023-07-22T11:44:29;95262.44;;;37.15;29.96
36192;BME280;22233;42.708;23.360;2023-07-22T11:47:02;95270.41;;;37.52;30.42
36192;BME280;22233;42.708;23.360;2023-07-22T11:49:31;95268.56;;;37.49;29.85
36192;BME280;22233;42.708;23.360;2023-07-22T11:52:06;95246.84;;;37.61;30.35
36192;BME280;22233;42.708;23.360;2023-07-22T11:54:33;95249.63;;;37.75;30.14
36192;BME280;22233;42.708;23.360;2023-07-22T11:57:15;95259.03;;;37.67;30.19
36192;BME280;22233;42.708;23.360;2023-07-22T11:59:51;95236.13;;;37.91;29.53
36192;BME280;22233;42.708;23.360;2023-07-22T12:02:22;95271.47;;;37.54;30.06
36192;BME280;22233;42.708;23.360;2023-07-22T12:07:33;95261.44;;;37.18;30.65
36192;BME280;22233;42.708;23.360;2023-07-22T12:10:01;95248.03;;;37.54;30.09
36192;BME280;22233;42.708;23.360;2023-07-22T12:15:14;95249.94;;;37.42;30.29
36192;BME280;22233;42.708;23.360;2023-07-22T12:18:01;95248.41;;;37.82;30.21
36192;BME280;22233;42.708;23.360;2023-07-22T12:20:28;95235.03;;;37.62;30.09
36192;BME280;22233;42.708;23.360;2023-07-22T12:22:55;95239.00;;;37.96;30.35
36192;BME280;22233;42.708;23.360;2023-07-22T12:25:21;95239.50;;;38.15;29.84
36192;BME280;22233;42.708;23.360;2023-07-22T12:27:46;95241.78;;;37.91;30.16
36192;BME280;22233;42.708;23.360;2023-07-22T12:30:12;95247.50;;;38.43;29.24
36192;BME280;22233;42.708;23.360;2023-07-22T12:32:38;95224.34;;;38.50;29.33
36192;BME280;22233;42.708;23.360;2023-07-22T12:35:05;95209.88;;;38.74;29.06
36192;BME280;22233;42.708;23.360;2023-07-22T12:37:31;95211.97;;;39.17;28.89
36192;BME280;22233;42.708;23.360;2023-07-22T12:39:56;95220.13;;;39.04;28.89
36192;BME280;22233;42.708;23.360;2023-07-22T12:42:22;95221.22;;;38.74;29.81
36192;BME280;22233;42.708;23.360;2023-07-22T12:44:47;95203.97;;;38.84;29.66
36192;BME280;22233;42.708;23.360;2023-07-22T12:47:13;95216.91;;;39.22;28.11
36192;BME280;22233;42.708;23.360;2023-07-22T12:49:38;95208.25;;;39.00;28.28
36192;BME280;22233;42.708;23.360;2023-07-22T12:52:04;95224.69;;;38.95;28.39
36192;BME280;22233;42.708;23.360;2023-07-22T12:54:34;95209.66;;;39.21;28.23